sensor_id;sensor_type;location;lat;lon;timestamp;P1;durP1;ratioP1;P2;durP2;ratioP2
39994;SDS011;25686;51.908;10.418;2023-04-03T00:01:57;10.03;;;2.23;;
39994;SDS011;25686;51.908;10.418;2023-04-03T00:03:58;6.10;;;2.10;;
39994;SDS011;25686;51.908;10.418;2023-04-03T00:06:00;7.13;;;2.13;;
39994;SDS011;25686;51.908;10.418;2023-04-03T00:08:01;8.73;;;2.10;;
39994;SDS011;25686;51.908;10.418;2023-04-03T00:10:02;6.07;;;1.87;;
39994;SDS011;25686;51.908;10.418;2023-04-03T00:12:03;8.40;;;1.90;;
39994;SDS011;25686;51.908;10.418;2023-04-03T00:14:04;7.70;;;1.93;;
39994;SDS011;25686;51.908;10.418;2023-04-03T00:16:06;8.00;;;2.07;;
39994;SDS011;25686;51.908;10.418;2023-04-03T00:18:07;6.70;;;2.03;;
39994;SDS011;25686;51.908;10.418;2023-04-03T00:20:08;5.70;;;2.40;;
39994;SDS011;25686;51.908;10.418;2023-04-03T00:22:09;9.27;;;2.30;;
39994;SDS011;25686;51.908;10.418;2023-04-03T00:24:10;4.43;;;1.93;;
39994;SDS011;25686;51.908;10.418;2023-04-03T00:26:11;6.97;;;2.13;;
39994;SDS011;25686;51.908;10.418;2023-04-03T00:28:12;7.20;;;2.07;;
39994;SDS011;25686;51.908;10.418;2023-04-03T00:30:14;8.97;;;2.37;;
39994;SDS011;25686;51.908;10.418;2023-04-03T00:32:15;9.13;;;2.50;;
39994;SDS011;25686;51.908;10.418;2023-04-03T00:34:16;5.20;;;2.20;;
39994;SDS011;25686;51.908;10.418;2023-04-03T00:36:17;9.40;;;2.63;;
39994;SDS011;25686;51.908;10.418;2023-04-03T00:38:18;10.40;;;2.40;;
39994;SDS011;25686;51.908;10.418;2023-04-03T00:40:20;6.70;;;2.07;;
39994;SDS011;25686;51.908;10.418;2023-04-03T00:42:22;10.43;;;2.40;;
39994;SDS011;25686;51.908;10.418;2023-04-03T00:46:35;6.17;;;2.40;;
39994;SDS011;25686;51.908;10.418;2023-04-03T00:48:40;10.23;;;2.33;;
39994;SDS011;25686;51.908;10.418;2023-04-03T00:50:42;8.27;;;2.30;;
39994;SDS011;25686;51.908;10.418;2023-04-03T00:52:43;9.87;;;2.30;;
39994;SDS011;25686;51.908;10.418;2023-04-03T00:54:47;7.73;;;1.90;;
39994;SDS011;25686;51.908;10.418;2023-04-03T00:56:49;10.23;;;2.10;;
39994;SDS011;25686;51.908;10.418;2023-04-03T00:58:53;8.43;;;2.03;;
39994;SDS011;25686;51.908;10.418;2023-04-03T01:00:57;9.07;;;2.13;;
39994;SDS011;25686;51.908;10.418;2023-04-03T01:02:58;8.93;;;2.00;;
39994;SDS011;25686;51.908;10.418;2023-04-03T01:05:00;12.93;;;2.57;;
39994;SDS011;25686;51.908;10.418;2023-04-03T01:07:02;20.33;;;2.83;;
39994;SDS011;25686;51.908;10.418;2023-04-03T01:09:04;14.50;;;2.40;;
39994;SDS011;25686;51.908;10.418;2023-04-03T01:11:05;10.90;;;2.20;;
39994;SDS011;25686;51.908;10.418;2023-04-03T01:15:40;9.33;;;2.63;;
39994;SDS011;25686;51.908;10.418;2023-04-03T01:17:43;11.20;;;2.00;;
39994;SDS011;25686;51.908;10.418;2023-04-03T01:19:44;14.47;;;2.80;;
39994;SDS011;25686;51.908;10.418;2023-04-03T01:24:46;8.57;;;2.20;;
39994;SDS011;25686;51.908;10.418;2023-04-03T01:26:47;9.33;;;2.27;;
39994;SDS011;25686;51.908;10.418;2023-04-03T01:28:48;8.30;;;2.63;;
39994;SDS011;25686;51.908;10.418;2023-04-03T01:33:09;10.43;;;2.47;;
39994;SDS011;25686;51.908;10.418;2023-04-03T01:35:11;9.00;;;2.40;;
39994;SDS011;25686;51.908;10.418;2023-04-03T01:37:12;8.70;;;2.57;;
39994;SDS011;25686;51.908;10.418;2023-04-03T01:39:13;5.57;;;2.17;;
39994;SDS011;25686;51.908;10.418;2023-04-03T01:41:14;9.10;;;2.43;;
39994;SDS011;25686;51.908;10.418;2023-04-03T01:43:15;8.60;;;2.47;;
39994;SDS011;25686;51.908;10.418;2023-04-03T01:45:16;7.00;;;2.00;;
39994;SDS011;25686;51.908;10.418;2023-04-03T01:47:17;9.17;;;2.50;;
39994;SDS011;25686;51.908;10.418;2023-04-03T01:49:18;5.13;;;2.20;;
39994;SDS011;25686;51.908;10.418;2023-04-03T01:51:19;13.83;;;2.70;;
39994;SDS011;25686;51.908;10.418;2023-04-03T01:53:21;11.30;;;2.50;;
39994;SDS011;25686;51.908;10.418;2023-04-03T01:55:21;6.80;;;2.03;;
39994;SDS011;25686;51.908;10.418;2023-04-03T01:57:22;10.17;;;2.00;;
39994;SDS011;25686;51.908;10.418;2023-04-03T01:59:23;8.13;;;1.83;;
39994;SDS011;25686;51.908;10.418;2023-04-03T02:01:24;13.07;;;2.03;;
39994;SDS011;25686;51.908;10.418;2023-04-03T02:03:25;9.07;;;2.17;;
39994;SDS011;25686;51.908;10.418;2023-04-03T02:05:26;8.13;;;1.90;;
39994;SDS011;25686;51.908;10.418;2023-04-03T02:07:27;11.53;;;1.97;;
39994;SDS011;25686;51.908;10.418;2023-04-03T02:09:28;9.10;;;1.77;;
39994;SDS011;25686;51.908;10.418;2023-04-03T02:11:30;6.03;;;1.90;;
39994;SDS011;25686;51.908;10.418;2023-04-03T02:13:31;8.23;;;1.80;;
39994;SDS011;25686;51.908;10.418;2023-04-03T02:15:32;10.03;;;1.90;;
39994;SDS011;25686;51.908;10.418;2023-04-03T02:17:33;8.23;;;1.63;;
39994;SDS011;25686;51.908;10.418;2023-04-03T02:19:35;8.13;;;1.83;;
39994;SDS011;25686;51.908;10.418;2023-04-03T02:21:36;10.77;;;1.67;;
39994;SDS011;25686;51.908;10.418;2023-04-03T02:23:37;9.07;;;2.00;;
39994;SDS011;25686;51.908;10.418;2023-04-03T02:25:38;8.37;;;1.63;;
39994;SDS011;25686;51.908;10.418;2023-04-03T02:27:39;9.53;;;2.10;;
39994;SDS011;25686;51.908;10.418;2023-04-03T02:29:40;8.70;;;1.90;;
39994;SDS011;25686;51.908;10.418;2023-04-03T02:31:41;5.67;;;1.50;;
39994;SDS011;25686;51.908;10.418;2023-04-03T02:33:42;7.73;;;2.03;;
39994;SDS011;25686;51.908;10.418;2023-04-03T02:35:43;4.67;;;1.63;;
39994;SDS011;25686;51.908;10.418;2023-04-03T02:37:52;5.87;;;1.60;;
39994;SDS011;25686;51.908;10.418;2023-04-03T02:39:53;10.40;;;1.70;;
39994;SDS011;25686;51.908;10.418;2023-04-03T02:41:54;5.13;;;1.60;;
39994;SDS011;25686;51.908;10.418;2023-04-03T02:43:55;13.67;;;2.03;;
39994;SDS011;25686;51.908;10.418;2023-04-03T02:45:56;6.43;;;1.60;;
39994;SDS011;25686;51.908;10.418;2023-04-03T02:47:57;6.10;;;1.67;;
39994;SDS011;25686;51.908;10.418;2023-04-03T02:49:58;7.63;;;2.13;;
39994;SDS011;25686;51.908;10.418;2023-04-03T02:51:59;8.53;;;1.53;;
39994;SDS011;25686;51.908;10.418;2023-04-03T02:54:00;4.70;;;1.63;;
39994;SDS011;25686;51.908;10.418;2023-04-03T02:56:01;7.83;;;1.60;;
39994;SDS011;25686;51.908;10.418;2023-04-03T02:58:02;6.27;;;1.73;;
39994;SDS011;25686;51.908;10.418;2023-04-03T03:00:03;6.57;;;1.93;;
39994;SDS011;25686;51.908;10.418;2023-04-03T03:02:05;6.57;;;1.90;;
39994;SDS011;25686;51.908;10.418;2023-04-03T03:04:06;6.33;;;2.10;;
39994;SDS011;25686;51.908;10.418;2023-04-03T03:06:08;10.07;;;1.83;;
39994;SDS011;25686;51.908;10.418;2023-04-03T03:08:09;8.40;;;2.07;;
39994;SDS011;25686;51.908;10.418;2023-04-03T03:10:10;13.37;;;1.70;;
39994;SDS011;25686;51.908;10.418;2023-04-03T03:12:11;9.43;;;1.87;;
39994;SDS011;25686;51.908;10.418;2023-04-03T03:14:12;11.70;;;2.40;;
39994;SDS011;25686;51.908;10.418;2023-04-03T03:16:13;7.83;;;1.57;;
39994;SDS011;25686;51.908;10.418;2023-04-03T03:18:14;12.40;;;2.70;;
39994;SDS011;25686;51.908;10.418;2023-04-03T03:20:15;6.70;;;2.07;;
39994;SDS011;25686;51.908;10.418;2023-04-03T03:22:16;7.70;;;1.73;;
39994;SDS011;25686;51.908;10.418;2023-04-03T03:24:17;9.93;;;2.33;;
39994;SDS011;25686;51.908;10.418;2023-04-03T03:26:18;5.70;;;1.90;;
39994;SDS011;25686;51.908;10.418;2023-04-03T03:28:19;7.60;;;1.80;;
39994;SDS011;25686;51.908;10.418;2023-04-03T03:30:20;6.77;;;1.77;;
39994;SDS011;25686;51.908;10.418;2023-04-03T03:32:21;7.60;;;1.60;;
39994;SDS011;25686;51.908;10.418;2023-04-03T03:34:22;7.23;;;2.23;;
39994;SDS011;25686;51.908;10.418;2023-04-03T03:36:23;10.73;;;2.20;;
39994;SDS011;25686;51.908;10.418;2023-04-03T03:38:24;9.93;;;1.87;;
39994;SDS011;25686;51.908;10.418;2023-04-03T03:40:25;7.10;;;2.03;;
39994;SDS011;25686;51.908;10.418;2023-04-03T03:42:26;8.77;;;1.97;;
39994;SDS011;25686;51.908;10.418;2023-04-03T03:44:27;7.73;;;1.77;;
39994;SDS011;25686;51.908;10.418;2023-04-03T03:46:29;7.80;;;2.00;;
39994;SDS011;25686;51.908;10.418;2023-04-03T03:48:30;7.27;;;1.70;;
39994;SDS011;25686;51.908;10.418;2023-04-03T03:50:31;9.30;;;1.73;;
39994;SDS011;25686;51.908;10.418;2023-04-03T03:52:32;11.37;;;1.70;;
39994;SDS011;25686;51.908;10.418;2023-04-03T03:54:32;9.00;;;2.27;;
39994;SDS011;25686;51.908;10.418;2023-04-03T03:56:33;11.63;;;1.70;;
39994;SDS011;25686;51.908;10.418;2023-04-03T03:58:35;9.00;;;2.10;;
39994;SDS011;25686;51.908;10.418;2023-04-03T04:00:36;9.90;;;1.83;;
39994;SDS011;25686;51.908;10.418;2023-04-03T04:02:37;6.63;;;1.70;;
39994;SDS011;25686;51.908;10.418;2023-04-03T04:04:38;5.47;;;1.70;;
39994;SDS011;25686;51.908;10.418;2023-04-03T04:06:39;7.93;;;1.70;;
39994;SDS011;25686;51.908;10.418;2023-04-03T04:08:40;7.87;;;1.90;;
39994;SDS011;25686;51.908;10.418;2023-04-03T04:10:41;12.47;;;1.70;;
39994;SDS011;25686;51.908;10.418;2023-04-03T04:12:42;7.13;;;1.57;;
39994;SDS011;25686;51.908;10.418;2023-04-03T04:14:43;8.63;;;1.90;;
39994;SDS011;25686;51.908;10.418;2023-04-03T04:16:46;9.10;;;1.90;;
39994;SDS011;25686;51.908;10.418;2023-04-03T04:18:47;6.83;;;1.97;;
39994;SDS011;25686;51.908;10.418;2023-04-03T04:20:48;13.37;;;2.20;;
39994;SDS011;25686;51.908;10.418;2023-04-03T04:22:49;7.60;;;1.50;;
39994;SDS011;25686;51.908;10.418;2023-04-03T04:24:50;5.77;;;1.80;;
39994;SDS011;25686;51.908;10.418;2023-04-03T04:26:51;10.77;;;2.10;;
39994;SDS011;25686;51.908;10.418;2023-04-03T04:28:52;3.83;;;1.20;;
39994;SDS011;25686;51.908;10.418;2023-04-03T04:30:53;15.67;;;2.37;;
39994;SDS011;25686;51.908;10.418;2023-04-03T04:32:54;7.97;;;1.77;;
39994;SDS011;25686;51.908;10.418;2023-04-03T04:34:55;7.20;;;2.17;;
39994;SDS011;25686;51.908;10.418;2023-04-03T04:36:56;9.07;;;2.00;;
39994;SDS011;25686;51.908;10.418;2023-04-03T04:38:57;9.80;;;1.57;;
39994;SDS011;25686;51.908;10.418;2023-04-03T04:40:58;8.47;;;2.10;;
39994;SDS011;25686;51.908;10.418;2023-04-03T04:43:00;11.07;;;1.93;;
39994;SDS011;25686;51.908;10.418;2023-04-03T04:45:01;11.30;;;2.30;;
39994;SDS011;25686;51.908;10.418;2023-04-03T04:47:02;9.37;;;2.17;;
39994;SDS011;25686;51.908;10.418;2023-04-03T04:49:02;10.77;;;2.23;;
39994;SDS011;25686;51.908;10.418;2023-04-03T04:51:04;12.80;;;2.17;;
39994;SDS011;25686;51.908;10.418;2023-04-03T04:53:05;14.60;;;2.50;;
39994;SDS011;25686;51.908;10.418;2023-04-03T04:55:06;6.20;;;2.20;;
39994;SDS011;25686;51.908;10.418;2023-04-03T04:57:07;7.10;;;2.20;;
39994;SDS011;25686;51.908;10.418;2023-04-03T04:59:08;11.20;;;2.20;;
39994;SDS011;25686;51.908;10.418;2023-04-03T05:01:10;8.53;;;2.00;;
39994;SDS011;25686;51.908;10.418;2023-04-03T05:03:11;11.37;;;2.43;;
39994;SDS011;25686;51.908;10.418;2023-04-03T05:05:12;9.23;;;2.20;;
39994;SDS011;25686;51.908;10.418;2023-04-03T05:07:13;11.00;;;1.97;;
39994;SDS011;25686;51.908;10.418;2023-04-03T05:09:14;12.60;;;2.07;;
39994;SDS011;25686;51.908;10.418;2023-04-03T05:11:15;12.27;;;1.80;;
39994;SDS011;25686;51.908;10.418;2023-04-03T05:13:16;9.77;;;1.97;;
39994;SDS011;25686;51.908;10.418;2023-04-03T05:15:17;8.23;;;2.13;;
39994;SDS011;25686;51.908;10.418;2023-04-03T05:17:18;7.77;;;2.17;;
39994;SDS011;25686;51.908;10.418;2023-04-03T05:19:20;12.47;;;2.03;;
39994;SDS011;25686;51.908;10.418;2023-04-03T05:21:21;6.93;;;1.97;;
39994;SDS011;25686;51.908;10.418;2023-04-03T05:23:24;6.60;;;2.20;;
39994;SDS011;25686;51.908;10.418;2023-04-03T05:25:26;6.20;;;2.20;;
39994;SDS011;25686;51.908;10.418;2023-04-03T05:27:27;6.40;;;1.80;;
39994;SDS011;25686;51.908;10.418;2023-04-03T05:29:28;7.10;;;2.17;;
39994;SDS011;25686;51.908;10.418;2023-04-03T05:31:29;11.67;;;2.37;;
39994;SDS011;25686;51.908;10.418;2023-04-03T05:33:30;8.10;;;2.10;;
39994;SDS011;25686;51.908;10.418;2023-04-03T05:35:31;10.23;;;2.57;;
39994;SDS011;25686;51.908;10.418;2023-04-03T05:37:32;6.53;;;2.20;;
39994;SDS011;25686;51.908;10.418;2023-04-03T05:39:34;6.07;;;2.60;;
39994;SDS011;25686;51.908;10.418;2023-04-03T05:41:35;5.10;;;2.20;;
39994;SDS011;25686;51.908;10.418;2023-04-03T05:43:36;7.80;;;1.60;;
39994;SDS011;25686;51.908;10.418;2023-04-03T05:45:38;14.83;;;3.50;;
39994;SDS011;25686;51.908;10.418;2023-04-03T05:47:39;5.40;;;2.33;;
39994;SDS011;25686;51.908;10.418;2023-04-03T05:49:40;7.07;;;1.97;;
39994;SDS011;25686;51.908;10.418;2023-04-03T05:51:41;7.57;;;1.87;;
39994;SDS011;25686;51.908;10.418;2023-04-03T05:53:44;9.73;;;2.00;;
39994;SDS011;25686;51.908;10.418;2023-04-03T05:55:46;10.43;;;2.00;;
39994;SDS011;25686;51.908;10.418;2023-04-03T05:57:47;10.30;;;1.80;;
39994;SDS011;25686;51.908;10.418;2023-04-03T05:59:48;7.03;;;1.97;;
39994;SDS011;25686;51.908;10.418;2023-04-03T06:01:49;8.13;;;2.05;;
39994;SDS011;25686;51.908;10.418;2023-04-03T06:03:50;7.32;;;2.50;;
39994;SDS011;25686;51.908;10.418;2023-04-03T06:05:51;11.40;;;2.10;;
39994;SDS011;25686;51.908;10.418;2023-04-03T06:07:52;5.18;;;1.50;;
39994;SDS011;25686;51.908;10.418;2023-04-03T06:09:54;4.47;;;1.50;;
39994;SDS011;25686;51.908;10.418;2023-04-03T06:11:56;6.22;;;1.85;;
39994;SDS011;25686;51.908;10.418;2023-04-03T06:13:58;5.82;;;1.85;;
39994;SDS011;25686;51.908;10.418;2023-04-03T06:16:00;5.78;;;1.67;;
39994;SDS011;25686;51.908;10.418;2023-04-03T06:18:02;9.25;;;2.03;;
39994;SDS011;25686;51.908;10.418;2023-04-03T06:20:03;4.80;;;1.83;;
39994;SDS011;25686;51.908;10.418;2023-04-03T06:22:04;5.90;;;1.80;;
39994;SDS011;25686;51.908;10.418;2023-04-03T06:24:05;5.03;;;1.50;;
39994;SDS011;25686;51.908;10.418;2023-04-03T06:26:07;6.25;;;1.80;;
39994;SDS011;25686;51.908;10.418;2023-04-03T06:28:08;5.85;;;1.50;;
39994;SDS011;25686;51.908;10.418;2023-04-03T06:30:10;4.82;;;2.50;;
39994;SDS011;25686;51.908;10.418;2023-04-03T06:32:11;4.43;;;1.58;;
39994;SDS011;25686;51.908;10.418;2023-04-03T06:34:12;4.90;;;1.40;;
39994;SDS011;25686;51.908;10.418;2023-04-03T06:36:13;4.38;;;1.50;;
39994;SDS011;25686;51.908;10.418;2023-04-03T06:38:15;4.55;;;1.35;;
39994;SDS011;25686;51.908;10.418;2023-04-03T06:40:19;8.38;;;1.83;;
39994;SDS011;25686;51.908;10.418;2023-04-03T06:42:21;9.15;;;1.67;;
39994;SDS011;25686;51.908;10.418;2023-04-03T06:44:22;5.72;;;1.70;;
39994;SDS011;25686;51.908;10.418;2023-04-03T06:46:24;6.65;;;1.60;;
39994;SDS011;25686;51.908;10.418;2023-04-03T06:48:25;5.63;;;1.80;;
39994;SDS011;25686;51.908;10.418;2023-04-03T06:50:26;4.57;;;1.52;;
39994;SDS011;25686;51.908;10.418;2023-04-03T06:52:27;7.85;;;1.33;;
39994;SDS011;25686;51.908;10.418;2023-04-03T06:54:28;5.60;;;1.83;;
39994;SDS011;25686;51.908;10.418;2023-04-03T06:56:29;5.22;;;1.65;;
39994;SDS011;25686;51.908;10.418;2023-04-03T06:58:30;5.82;;;1.77;;
39994;SDS011;25686;51.908;10.418;2023-04-03T07:00:31;6.90;;;1.45;;
39994;SDS011;25686;51.908;10.418;2023-04-03T07:02:33;6.47;;;1.48;;
39994;SDS011;25686;51.908;10.418;2023-04-03T07:04:34;5.05;;;1.40;;
39994;SDS011;25686;51.908;10.418;2023-04-03T07:06:36;8.85;;;1.77;;
39994;SDS011;25686;51.908;10.418;2023-04-03T07:08:37;7.53;;;1.17;;
39994;SDS011;25686;51.908;10.418;2023-04-03T07:10:38;5.78;;;1.60;;
39994;SDS011;25686;51.908;10.418;2023-04-03T07:12:39;9.38;;;1.70;;
39994;SDS011;25686;51.908;10.418;2023-04-03T07:14:40;5.63;;;1.65;;
39994;SDS011;25686;51.908;10.418;2023-04-03T07:16:42;6.47;;;1.67;;
39994;SDS011;25686;51.908;10.418;2023-04-03T07:18:43;7.80;;;1.98;;
39994;SDS011;25686;51.908;10.418;2023-04-03T07:20:45;4.63;;;1.48;;
39994;SDS011;25686;51.908;10.418;2023-04-03T07:22:46;4.63;;;1.52;;
39994;SDS011;25686;51.908;10.418;2023-04-03T07:24:46;8.15;;;1.80;;
39994;SDS011;25686;51.908;10.418;2023-04-03T07:26:51;4.85;;;1.55;;
39994;SDS011;25686;51.908;10.418;2023-04-03T07:28:52;5.00;;;1.60;;
39994;SDS011;25686;51.908;10.418;2023-04-03T07:30:54;5.78;;;1.38;;
39994;SDS011;25686;51.908;10.418;2023-04-03T07:32:59;5.07;;;1.30;;
39994;SDS011;25686;51.908;10.418;2023-04-03T07:35:00;6.82;;;1.65;;
39994;SDS011;25686;51.908;10.418;2023-04-03T07:37:01;6.22;;;1.67;;
39994;SDS011;25686;51.908;10.418;2023-04-03T07:39:03;5.40;;;1.70;;
39994;SDS011;25686;51.908;10.418;2023-04-03T07:41:04;5.97;;;1.55;;
39994;SDS011;25686;51.908;10.418;2023-04-03T07:43:05;6.90;;;1.50;;
39994;SDS011;25686;51.908;10.418;2023-04-03T07:45:06;5.63;;;1.92;;
39994;SDS011;25686;51.908;10.418;2023-04-03T07:47:08;3.97;;;1.23;;
39994;SDS011;25686;51.908;10.418;2023-04-03T07:49:09;4.47;;;1.50;;
39994;SDS011;25686;51.908;10.418;2023-04-03T07:51:10;5.40;;;1.50;;
39994;SDS011;25686;51.908;10.418;2023-04-03T07:53:11;5.47;;;1.30;;
39994;SDS011;25686;51.908;10.418;2023-04-03T07:55:12;3.50;;;1.30;;
39994;SDS011;25686;51.908;10.418;2023-04-03T07:57:13;4.20;;;1.42;;
39994;SDS011;25686;51.908;10.418;2023-04-03T07:59:14;4.47;;;1.80;;
39994;SDS011;25686;51.908;10.418;2023-04-03T08:01:15;6.80;;;1.75;;
39994;SDS011;25686;51.908;10.418;2023-04-03T08:03:16;4.35;;;2.00;;
39994;SDS011;25686;51.908;10.418;2023-04-03T08:05:20;6.97;;;1.90;;
39994;SDS011;25686;51.908;10.418;2023-04-03T08:07:21;5.95;;;1.65;;
39994;SDS011;25686;51.908;10.418;2023-04-03T08:09:22;5.57;;;1.77;;
39994;SDS011;25686;51.908;10.418;2023-04-03T08:11:23;5.75;;;1.42;;
39994;SDS011;25686;51.908;10.418;2023-04-03T08:13:26;4.15;;;1.73;;
39994;SDS011;25686;51.908;10.418;2023-04-03T08:15:27;4.75;;;1.50;;
39994;SDS011;25686;51.908;10.418;2023-04-03T08:17:30;4.57;;;1.50;;
39994;SDS011;25686;51.908;10.418;2023-04-03T08:19:31;4.82;;;1.50;;
39994;SDS011;25686;51.908;10.418;2023-04-03T08:21:32;5.13;;;1.60;;
39994;SDS011;25686;51.908;10.418;2023-04-03T08:23:33;4.20;;;1.40;;
39994;SDS011;25686;51.908;10.418;2023-04-03T08:25:37;6.90;;;1.50;;
39994;SDS011;25686;51.908;10.418;2023-04-03T08:27:38;5.40;;;1.45;;
39994;SDS011;25686;51.908;10.418;2023-04-03T08:29:39;9.38;;;1.75;;
39994;SDS011;25686;51.908;10.418;2023-04-03T08:31:40;3.90;;;1.70;;
39994;SDS011;25686;51.908;10.418;2023-04-03T08:33:41;6.40;;;2.00;;
39994;SDS011;25686;51.908;10.418;2023-04-03T08:35:42;3.95;;;1.50;;
39994;SDS011;25686;51.908;10.418;2023-04-03T08:37:43;6.50;;;1.67;;
39994;SDS011;25686;51.908;10.418;2023-04-03T08:39:44;4.18;;;1.60;;
39994;SDS011;25686;51.908;10.418;2023-04-03T08:41:45;7.10;;;1.60;;
39994;SDS011;25686;51.908;10.418;2023-04-03T08:43:58;2.40;;;1.35;;
39994;SDS011;25686;51.908;10.418;2023-04-03T08:46:02;6.28;;;1.50;;
39994;SDS011;25686;51.908;10.418;2023-04-03T08:48:27;4.18;;;1.48;;
39994;SDS011;25686;51.908;10.418;2023-04-03T08:50:31;5.28;;;1.75;;
39994;SDS011;25686;51.908;10.418;2023-04-03T08:52:36;4.28;;;1.30;;
39994;SDS011;25686;51.908;10.418;2023-04-03T08:54:44;6.28;;;1.48;;
39994;SDS011;25686;51.908;10.418;2023-04-03T08:56:48;5.45;;;1.70;;
39994;SDS011;25686;51.908;10.418;2023-04-03T08:58:55;5.47;;;1.63;;
39994;SDS011;25686;51.908;10.418;2023-04-03T09:00:57;5.90;;;1.50;;
39994;SDS011;25686;51.908;10.418;2023-04-03T09:03:00;4.88;;;1.45;;
39994;SDS011;25686;51.908;10.418;2023-04-03T09:05:02;5.25;;;1.58;;
39994;SDS011;25686;51.908;10.418;2023-04-03T09:07:12;5.55;;;1.42;;
39994;SDS011;25686;51.908;10.418;2023-04-03T09:09:15;6.38;;;1.77;;
39994;SDS011;25686;51.908;10.418;2023-04-03T09:13:39;5.07;;;1.80;;
39994;SDS011;25686;51.908;10.418;2023-04-03T09:15:43;6.55;;;1.70;;
39994;SDS011;25686;51.908;10.418;2023-04-03T09:21:52;5.63;;;1.40;;
39994;SDS011;25686;51.908;10.418;2023-04-03T09:23:54;3.53;;;1.33;;
39994;SDS011;25686;51.908;10.418;2023-04-03T09:25:58;5.72;;;1.42;;
39994;SDS011;25686;51.908;10.418;2023-04-03T09:28:03;6.43;;;1.70;;
39994;SDS011;25686;51.908;10.418;2023-04-03T09:30:13;4.63;;;1.60;;
39994;SDS011;25686;51.908;10.418;2023-04-03T09:34:32;5.90;;;1.63;;
39994;SDS011;25686;51.908;10.418;2023-04-03T09:38:40;4.55;;;1.52;;
39994;SDS011;25686;51.908;10.418;2023-04-03T09:40:45;3.42;;;1.58;;
39994;SDS011;25686;51.908;10.418;2023-04-03T09:42:46;10.27;;;1.23;;
39994;SDS011;25686;51.908;10.418;2023-04-03T09:44:56;7.32;;;1.67;;
39994;SDS011;25686;51.908;10.418;2023-04-03T09:46:57;5.65;;;1.38;;
39994;SDS011;25686;51.908;10.418;2023-04-03T09:48:59;5.10;;;1.70;;
39994;SDS011;25686;51.908;10.418;2023-04-03T09:51:01;5.63;;;1.50;;
39994;SDS011;25686;51.908;10.418;2023-04-03T09:53:06;3.42;;;1.20;;
39994;SDS011;25686;51.908;10.418;2023-04-03T09:55:08;5.20;;;2.00;;
39994;SDS011;25686;51.908;10.418;2023-04-03T09:57:14;5.03;;;1.70;;
39994;SDS011;25686;51.908;10.418;2023-04-03T09:59:15;6.82;;;1.83;;
39994;SDS011;25686;51.908;10.418;2023-04-03T10:01:21;7.60;;;1.65;;
39994;SDS011;25686;51.908;10.418;2023-04-03T10:05:35;7.88;;;1.45;;
39994;SDS011;25686;51.908;10.418;2023-04-03T10:07:37;5.25;;;2.13;;
39994;SDS011;25686;51.908;10.418;2023-04-03T10:09:38;2.58;;;1.00;;
39994;SDS011;25686;51.908;10.418;2023-04-03T10:12:03;7.15;;;1.40;;
39994;SDS011;25686;51.908;10.418;2023-04-03T10:14:15;4.32;;;1.60;;
39994;SDS011;25686;51.908;10.418;2023-04-03T10:16:18;4.30;;;1.20;;
39994;SDS011;25686;51.908;10.418;2023-04-03T10:18:26;7.82;;;1.55;;
39994;SDS011;25686;51.908;10.418;2023-04-03T10:20:33;2.00;;;1.00;;
39994;SDS011;25686;51.908;10.418;2023-04-03T10:27:32;4.88;;;1.30;;
39994;SDS011;25686;51.908;10.418;2023-04-03T10:31:21;7.45;;;1.10;;
39994;SDS011;25686;51.908;10.418;2023-04-03T10:39:44;3.50;;;1.15;;
39994;SDS011;25686;51.908;10.418;2023-04-03T10:43:54;4.57;;;1.45;;
39994;SDS011;25686;51.908;10.418;2023-04-03T10:50:15;4.35;;;1.20;;
39994;SDS011;25686;51.908;10.418;2023-04-03T10:52:27;5.95;;;1.17;;
39994;SDS011;25686;51.908;10.418;2023-04-03T10:54:38;3.40;;;1.15;;
39994;SDS011;25686;51.908;10.418;2023-04-03T10:56:41;3.78;;;0.88;;
39994;SDS011;25686;51.908;10.418;2023-04-03T10:58:43;3.60;;;1.45;;
39994;SDS011;25686;51.908;10.418;2023-04-03T11:00:45;2.65;;;1.05;;
39994;SDS011;25686;51.908;10.418;2023-04-03T11:02:53;6.43;;;1.58;;
39994;SDS011;25686;51.908;10.418;2023-04-03T11:04:57;4.60;;;1.73;;
39994;SDS011;25686;51.908;10.418;2023-04-03T11:07:06;5.25;;;1.60;;
39994;SDS011;25686;51.908;10.418;2023-04-03T11:11:16;3.50;;;1.38;;
39994;SDS011;25686;51.908;10.418;2023-04-03T11:13:22;4.38;;;1.38;;
39994;SDS011;25686;51.908;10.418;2023-04-03T11:15:25;3.60;;;0.90;;
39994;SDS011;25686;51.908;10.418;2023-04-03T11:17:30;4.85;;;1.20;;
39994;SDS011;25686;51.908;10.418;2023-04-03T11:19:35;5.07;;;1.17;;
39994;SDS011;25686;51.908;10.418;2023-04-03T11:23:39;3.40;;;1.10;;
39994;SDS011;25686;51.908;10.418;2023-04-03T11:25:40;4.07;;;1.25;;
39994;SDS011;25686;51.908;10.418;2023-04-03T11:27:44;3.22;;;1.05;;
39994;SDS011;25686;51.908;10.418;2023-04-03T11:29:46;5.95;;;1.23;;
39994;SDS011;25686;51.908;10.418;2023-04-03T11:33:55;5.35;;;1.25;;
39994;SDS011;25686;51.908;10.418;2023-04-03T11:36:03;4.32;;;1.20;;
39994;SDS011;25686;51.908;10.418;2023-04-03T11:38:07;4.95;;;1.10;;
39994;SDS011;25686;51.908;10.418;2023-04-03T11:44:36;2.75;;;1.10;;
39994;SDS011;25686;51.908;10.418;2023-04-03T11:48:54;6.00;;;1.50;;
39994;SDS011;25686;51.908;10.418;2023-04-03T11:50:56;3.63;;;1.30;;
39994;SDS011;25686;51.908;10.418;2023-04-03T11:52:58;4.07;;;1.25;;
39994;SDS011;25686;51.908;10.418;2023-04-03T11:54:59;4.03;;;1.30;;
39994;SDS011;25686;51.908;10.418;2023-04-03T11:57:04;3.85;;;1.13;;
39994;SDS011;25686;51.908;10.418;2023-04-03T11:59:22;4.35;;;1.17;;
39994;SDS011;25686;51.908;10.418;2023-04-03T12:01:44;4.68;;;1.30;;
39994;SDS011;25686;51.908;10.418;2023-04-03T12:05:46;2.88;;;1.08;;
39994;SDS011;25686;51.908;10.418;2023-04-03T12:08:15;3.40;;;1.23;;
39994;SDS011;25686;51.908;10.418;2023-04-03T12:10:14;4.25;;;1.30;;
39994;SDS011;25686;51.908;10.418;2023-04-03T12:12:33;2.97;;;1.10;;
39994;SDS011;25686;51.908;10.418;2023-04-03T12:14:34;4.25;;;1.40;;
39994;SDS011;25686;51.908;10.418;2023-04-03T12:25:52;4.40;;;1.30;;
39994;SDS011;25686;51.908;10.418;2023-04-03T12:27:34;4.50;;;1.30;;
39994;SDS011;25686;51.908;10.418;2023-04-03T12:32:06;2.00;;;1.30;;
39994;SDS011;25686;51.908;10.418;2023-04-03T12:34:12;3.17;;;1.20;;
39994;SDS011;25686;51.908;10.418;2023-04-03T12:36:26;4.35;;;1.27;;
39994;SDS011;25686;51.908;10.418;2023-04-03T12:40:49;3.20;;;1.20;;
39994;SDS011;25686;51.908;10.418;2023-04-03T12:45:25;3.55;;;1.20;;
39994;SDS011;25686;51.908;10.418;2023-04-03T12:47:31;4.00;;;1.10;;
39994;SDS011;25686;51.908;10.418;2023-04-03T12:49:39;2.90;;;1.20;;
39994;SDS011;25686;51.908;10.418;2023-04-03T12:51:42;2.72;;;1.05;;
39994;SDS011;25686;51.908;10.418;2023-04-03T12:53:44;3.17;;;1.05;;
39994;SDS011;25686;51.908;10.418;2023-04-03T12:55:45;3.33;;;1.40;;
39994;SDS011;25686;51.908;10.418;2023-04-03T12:57:46;3.85;;;1.17;;
39994;SDS011;25686;51.908;10.418;2023-04-03T12:59:47;3.50;;;1.60;;
39994;SDS011;25686;51.908;10.418;2023-04-03T13:01:55;6.70;;;1.27;;
39994;SDS011;25686;51.908;10.418;2023-04-03T13:03:56;3.78;;;1.10;;
39994;SDS011;25686;51.908;10.418;2023-04-03T13:06:00;4.75;;;1.25;;
39994;SDS011;25686;51.908;10.418;2023-04-03T13:08:03;3.47;;;1.13;;
39994;SDS011;25686;51.908;10.418;2023-04-03T13:14:19;4.65;;;1.30;;
39994;SDS011;25686;51.908;10.418;2023-04-03T13:16:21;3.92;;;1.38;;
39994;SDS011;25686;51.908;10.418;2023-04-03T13:18:32;3.53;;;1.08;;
39994;SDS011;25686;51.908;10.418;2023-04-03T13:20:34;2.78;;;1.20;;
39994;SDS011;25686;51.908;10.418;2023-04-03T13:22:37;6.28;;;1.23;;
39994;SDS011;25686;51.908;10.418;2023-04-03T13:24:43;3.38;;;1.10;;